createdAt,value
2018-12-11T00:12:11.071Z,49.00
2018-12-11T00:25:18.242Z,49.20
2018-12-11T00:38:25.370Z,49.50
2018-12-11T00:51:32.603Z,49.60
2018-12-11T01:18:37.213Z,49.80
2018-12-11T01:31:59.958Z,50.00
2018-12-11T01:45:22.822Z,50.00
2018-12-11T01:58:45.740Z,50.20
2018-12-11T02:12:08.445Z,50.30
2018-12-11T02:38:33.058Z,50.60
2018-12-11T02:51:40.412Z,51.30
2018-12-11T03:04:47.532Z,50.70
2018-12-11T03:17:54.868Z,50.90
2018-12-11T03:31:02.150Z,50.90
2018-12-11T03:57:28.010Z,51.00
2018-12-11T04:10:35.282Z,51.10
2018-12-11T04:23:42.435Z,51.10
2018-12-11T04:36:49.691Z,51.20
2018-12-11T04:49:56.820Z,51.20
2018-12-11T05:03:03.993Z,51.90
2018-12-11T05:16:27.741Z,51.30
2018-12-11T05:29:50.453Z,51.40
2018-12-11T05:43:13.270Z,51.40
2018-12-11T05:56:36.095Z,51.10
2018-12-11T06:23:00.750Z,51.10
2018-12-11T06:36:07.880Z,51.00
2018-12-11T06:49:14.980Z,51.50
2018-12-11T07:02:22.139Z,51.40
2018-12-11T07:15:29.264Z,42.60
2018-12-11T07:28:36.450Z,40.30
2018-12-11T07:42:00.357Z,39.10
2018-12-11T07:55:23.126Z,42.20
2018-12-11T08:08:46.032Z,43.80
2018-12-11T08:22:08.719Z,43.90
2018-12-11T08:35:31.634Z,45.80
2018-12-11T08:48:54.395Z,45.90
2018-12-11T09:02:17.312Z,46.40
2018-12-11T09:15:39.998Z,46.90
2018-12-11T09:29:02.834Z,47.40
2018-12-11T09:42:27.868Z,47.80
2018-12-11T09:55:48.463Z,48.20
2018-12-11T10:09:11.267Z,48.50
2018-12-11T10:22:34.189Z,48.70
2018-12-11T10:35:57.029Z,48.80
2018-12-11T10:49:19.716Z,48.90
2018-12-11T11:02:42.536Z,49.00
2018-12-11T11:16:05.379Z,49.10
2018-12-11T11:29:28.152Z,49.20
2018-12-11T11:42:51.011Z,49.20
2018-12-11T11:56:13.773Z,49.40
2018-12-11T12:09:36.597Z,49.80
2018-12-11T12:22:59.445Z,50.10
2018-12-11T12:36:22.241Z,50.00
2018-12-11T12:49:50.391Z,50.10
2018-12-11T13:03:07.854Z,50.20
2018-12-11T13:16:30.828Z,50.20
2018-12-11T13:29:53.639Z,50.10
2018-12-11T13:43:16.363Z,50.10
2018-12-11T13:56:39.114Z,50.80
2018-12-11T14:10:02.165Z,50.40
2018-12-11T14:23:24.759Z,50.60
2018-12-11T14:36:47.642Z,50.50
2018-12-11T14:50:10.393Z,50.30
2018-12-11T15:03:33.371Z,44.80
2018-12-11T15:16:56.058Z,48.30
2018-12-11T15:30:18.828Z,48.70
2018-12-11T15:43:41.784Z,48.70
2018-12-11T15:57:04.606Z,48.40
2018-12-11T16:10:27.295Z,48.70
2018-12-11T16:23:50.104Z,48.90
2018-12-11T16:37:13.038Z,49.00
2018-12-11T16:50:35.762Z,49.10
2018-12-11T17:03:58.689Z,49.10
2018-12-11T17:17:21.636Z,49.10
2018-12-11T17:30:44.222Z,48.90
2018-12-11T17:44:07.017Z,48.80
2018-12-11T17:57:29.957Z,47.80
2018-12-11T18:10:52.777Z,47.10
2018-12-11T18:24:15.574Z,48.20
2018-12-11T18:37:38.404Z,47.60
2018-12-11T18:51:01.071Z,46.00
2018-12-11T19:04:23.901Z,45.10
2018-12-11T19:17:46.774Z,46.10
2018-12-11T19:31:09.587Z,46.60
2018-12-11T19:44:32.502Z,46.90
2018-12-11T19:57:59.453Z,47.00
2018-12-11T20:11:18.099Z,46.40
2018-12-11T20:24:40.803Z,46.40
2018-12-11T20:38:03.755Z,46.50
2018-12-11T20:51:26.787Z,46.60
2018-12-11T21:17:51.066Z,46.80
2018-12-11T21:30:58.326Z,46.80
2018-12-11T21:44:05.635Z,46.90
2018-12-11T21:57:12.922Z,47.00
2018-12-11T22:10:20.235Z,47.10
2018-12-11T22:23:44.446Z,47.10
2018-12-11T22:37:07.211Z,47.10
2018-12-11T22:50:29.955Z,47.20
2018-12-11T23:03:54.006Z,47.30
2018-12-11T23:17:15.633Z,47.40
2018-12-11T23:30:38.361Z,45.80
2018-12-11T23:44:01.196Z,47.30
2018-12-11T23:57:23.938Z,47.30
